sensor_id;sensor_type;location;lat;lon;timestamp;temperature;humidity
9466;DHT22;4771;48.726;9.006;2024-03-02T00:00:49;7.60;99.90
9466;DHT22;4771;48.726;9.006;2024-03-02T00:03:17;7.70;99.90
9466;DHT22;4771;48.726;9.006;2024-03-02T00:05:49;7.70;99.90
9466;DHT22;4771;48.726;9.006;2024-03-02T00:08:22;7.60;99.90
9466;DHT22;4771;48.726;9.006;2024-03-02T00:10:49;7.60;99.90
9466;DHT22;4771;48.726;9.006;2024-03-02T00:13:20;7.60;99.90
9466;DHT22;4771;48.726;9.006;2024-03-02T00:15:51;7.60;99.90
9466;DHT22;4771;48.726;9.006;2024-03-02T00:18:20;7.50;99.90
9466;DHT22;4771;48.726;9.006;2024-03-02T00:20:49;7.60;99.90
9466;DHT22;4771;48.726;9.006;2024-03-02T00:23:19;7.60;99.90
9466;DHT22;4771;48.726;9.006;2024-03-02T00:25:49;7.60;99.90
9466;DHT22;4771;48.726;9.006;2024-03-02T00:28:19;7.50;99.90
9466;DHT22;4771;48.726;9.006;2024-03-02T00:30:56;7.60;99.90
9466;DHT22;4771;48.726;9.006;2024-03-02T00:33:25;7.60;99.90
9466;DHT22;4771;48.726;9.006;2024-03-02T00:35:54;7.60;99.90
9466;DHT22;4771;48.726;9.006;2024-03-02T00:38:21;7.50;99.90
9466;DHT22;4771;48.726;9.006;2024-03-02T00:40:49;7.50;99.90
9466;DHT22;4771;48.726;9.006;2024-03-02T00:43:38;7.50;99.90
9466;DHT22;4771;48.726;9.006;2024-03-02T00:46:06;7.50;99.90
9466;DHT22;4771;48.726;9.006;2024-03-02T00:48:33;7.50;99.90
9466;DHT22;4771;48.726;9.006;2024-03-02T00:51:03;7.40;99.90
9466;DHT22;4771;48.726;9.006;2024-03-02T00:53:31;7.40;99.90
9466;DHT22;4771;48.726;9.006;2024-03-02T00:55:58;7.50;99.90
9466;DHT22;4771;48.726;9.006;2024-03-02T00:58:25;7.50;99.90
9466;DHT22;4771;48.726;9.006;2024-03-02T01:00:52;7.40;99.90
9466;DHT22;4771;48.726;9.006;2024-03-02T01:03:19;7.50;99.90
9466;DHT22;4771;48.726;9.006;2024-03-02T01:05:46;7.40;99.90
9466;DHT22;4771;48.726;9.006;2024-03-02T01:08:14;7.40;99.90
9466;DHT22;4771;48.726;9.006;2024-03-02T01:10:41;7.50;99.90
9466;DHT22;4771;48.726;9.006;2024-03-02T01:13:08;7.50;99.90
9466;DHT22;4771;48.726;9.006;2024-03-02T01:15:35;7.50;99.90
9466;DHT22;4771;48.726;9.006;2024-03-02T01:18:03;7.50;99.90
9466;DHT22;4771;48.726;9.006;2024-03-02T01:20:30;7.50;99.90
9466;DHT22;4771;48.726;9.006;2024-03-02T01:22:56;7.50;99.90
9466;DHT22;4771;48.726;9.006;2024-03-02T01:25:25;7.50;99.90
9466;DHT22;4771;48.726;9.006;2024-03-02T01:27:52;7.40;99.90
9466;DHT22;4771;48.726;9.006;2024-03-02T01:30:18;7.50;99.90
9466;DHT22;4771;48.726;9.006;2024-03-02T01:32:45;7.50;99.90
9466;DHT22;4771;48.726;9.006;2024-03-02T01:35:12;7.50;99.90
9466;DHT22;4771;48.726;9.006;2024-03-02T01:37:40;7.50;99.90
9466;DHT22;4771;48.726;9.006;2024-03-02T01:40:08;7.40;99.90
9466;DHT22;4771;48.726;9.006;2024-03-02T01:42:37;7.50;99.90
9466;DHT22;4771;48.726;9.006;2024-03-02T01:45:05;7.50;99.90
9466;DHT22;4771;48.726;9.006;2024-03-02T01:47:33;7.50;99.90
9466;DHT22;4771;48.726;9.006;2024-03-02T01:50:00;7.40;99.90
9466;DHT22;4771;48.726;9.006;2024-03-02T01:52:27;7.50;99.90
9466;DHT22;4771;48.726;9.006;2024-03-02T01:54:55;7.40;99.90
9466;DHT22;4771;48.726;9.006;2024-03-02T01:57:22;7.50;99.90
9466;DHT22;4771;48.726;9.006;2024-03-02T01:59:50;7.40;99.90
9466;DHT22;4771;48.726;9.006;2024-03-02T02:02:17;7.40;99.90
9466;DHT22;4771;48.726;9.006;2024-03-02T02:04:44;7.40;99.90
9466;DHT22;4771;48.726;9.006;2024-03-02T02:07:11;7.40;99.90
9466;DHT22;4771;48.726;9.006;2024-03-02T02:09:40;7.30;99.90
9466;DHT22;4771;48.726;9.006;2024-03-02T02:12:07;7.30;99.90
9466;DHT22;4771;48.726;9.006;2024-03-02T02:14:35;7.20;99.90
9466;DHT22;4771;48.726;9.006;2024-03-02T02:17:03;7.20;99.90
9466;DHT22;4771;48.726;9.006;2024-03-02T02:19:30;7.10;99.90
9466;DHT22;4771;48.726;9.006;2024-03-02T02:21:58;7.10;99.90
9466;DHT22;4771;48.726;9.006;2024-03-02T02:24:25;7.00;99.90
9466;DHT22;4771;48.726;9.006;2024-03-02T02:26:52;7.00;99.90
9466;DHT22;4771;48.726;9.006;2024-03-02T02:29:19;7.00;99.90
9466;DHT22;4771;48.726;9.006;2024-03-02T02:31:46;6.90;99.90
9466;DHT22;4771;48.726;9.006;2024-03-02T02:34:14;6.90;99.90
9466;DHT22;4771;48.726;9.006;2024-03-02T02:36:41;6.90;99.90
9466;DHT22;4771;48.726;9.006;2024-03-02T02:39:12;6.90;99.90
9466;DHT22;4771;48.726;9.006;2024-03-02T02:41:39;6.80;99.90
9466;DHT22;4771;48.726;9.006;2024-03-02T02:44:06;6.80;99.90
9466;DHT22;4771;48.726;9.006;2024-03-02T02:46:33;6.80;99.90
9466;DHT22;4771;48.726;9.006;2024-03-02T02:49:00;6.70;99.90
9466;DHT22;4771;48.726;9.006;2024-03-02T02:51:27;6.70;99.90
9466;DHT22;4771;48.726;9.006;2024-03-02T02:53:54;6.70;99.90
9466;DHT22;4771;48.726;9.006;2024-03-02T02:56:22;6.60;99.90
9466;DHT22;4771;48.726;9.006;2024-03-02T02:58:49;6.70;99.90
9466;DHT22;4771;48.726;9.006;2024-03-02T03:01:16;6.60;99.90
9466;DHT22;4771;48.726;9.006;2024-03-02T03:03:43;6.60;99.90
9466;DHT22;4771;48.726;9.006;2024-03-02T03:06:11;6.60;99.90
9466;DHT22;4771;48.726;9.006;2024-03-02T03:08:38;6.50;99.90
9466;DHT22;4771;48.726;9.006;2024-03-02T03:11:05;6.50;99.90
9466;DHT22;4771;48.726;9.006;2024-03-02T03:13:34;6.50;99.90
9466;DHT22;4771;48.726;9.006;2024-03-02T03:16:01;6.50;99.90
9466;DHT22;4771;48.726;9.006;2024-03-02T03:18:28;6.50;99.90
9466;DHT22;4771;48.726;9.006;2024-03-02T03:20:55;6.50;99.90
9466;DHT22;4771;48.726;9.006;2024-03-02T03:23:22;6.40;99.90
9466;DHT22;4771;48.726;9.006;2024-03-02T03:25:49;6.40;99.90
9466;DHT22;4771;48.726;9.006;2024-03-02T03:28:16;6.40;99.90
9466;DHT22;4771;48.726;9.006;2024-03-02T03:30:44;6.40;99.90
9466;DHT22;4771;48.726;9.006;2024-03-02T03:33:11;6.30;99.90
9466;DHT22;4771;48.726;9.006;2024-03-02T03:35:39;6.30;99.90
9466;DHT22;4771;48.726;9.006;2024-03-02T03:38:05;6.30;99.90
9466;DHT22;4771;48.726;9.006;2024-03-02T03:40:32;6.30;99.90
9466;DHT22;4771;48.726;9.006;2024-03-02T03:42:59;6.30;99.90
9466;DHT22;4771;48.726;9.006;2024-03-02T03:45:26;6.30;99.90
9466;DHT22;4771;48.726;9.006;2024-03-02T03:47:54;6.20;99.90
9466;DHT22;4771;48.726;9.006;2024-03-02T03:50:22;6.20;99.90
9466;DHT22;4771;48.726;9.006;2024-03-02T03:52:48;6.30;99.90
9466;DHT22;4771;48.726;9.006;2024-03-02T03:55:15;6.30;99.90
9466;DHT22;4771;48.726;9.006;2024-03-02T03:57:42;6.30;99.90
9466;DHT22;4771;48.726;9.006;2024-03-02T04:00:10;6.20;99.90
9466;DHT22;4771;48.726;9.006;2024-03-02T04:02:37;6.30;99.90
9466;DHT22;4771;48.726;9.006;2024-03-02T04:05:06;6.20;99.90
9466;DHT22;4771;48.726;9.006;2024-03-02T04:07:36;6.20;99.90
9466;DHT22;4771;48.726;9.006;2024-03-02T04:10:07;6.20;99.90
9466;DHT22;4771;48.726;9.006;2024-03-02T04:12:35;6.20;99.90
9466;DHT22;4771;48.726;9.006;2024-03-02T04:15:04;6.20;99.90
9466;DHT22;4771;48.726;9.006;2024-03-02T04:17:32;6.20;99.90
9466;DHT22;4771;48.726;9.006;2024-03-02T04:20:01;6.20;99.90
9466;DHT22;4771;48.726;9.006;2024-03-02T04:22:33;6.20;99.90
9466;DHT22;4771;48.726;9.006;2024-03-02T04:25:00;6.20;99.90
9466;DHT22;4771;48.726;9.006;2024-03-02T04:27:27;6.20;99.90
9466;DHT22;4771;48.726;9.006;2024-03-02T04:29:54;6.20;99.90
9466;DHT22;4771;48.726;9.006;2024-03-02T04:32:20;6.20;99.90
9466;DHT22;4771;48.726;9.006;2024-03-02T04:34:47;6.30;99.90
9466;DHT22;4771;48.726;9.006;2024-03-02T04:37:14;6.20;99.90
9466;DHT22;4771;48.726;9.006;2024-03-02T04:39:42;6.20;99.90
9466;DHT22;4771;48.726;9.006;2024-03-02T04:42:09;6.20;99.90
9466;DHT22;4771;48.726;9.006;2024-03-02T04:44:36;6.20;99.90
9466;DHT22;4771;48.726;9.006;2024-03-02T04:47:04;6.10;99.90
9466;DHT22;4771;48.726;9.006;2024-03-02T04:49:31;6.10;99.90
9466;DHT22;4771;48.726;9.006;2024-03-02T04:51:57;6.10;99.90
9466;DHT22;4771;48.726;9.006;2024-03-02T04:54:24;6.10;99.90
9466;DHT22;4771;48.726;9.006;2024-03-02T04:56:53;6.10;99.90
9466;DHT22;4771;48.726;9.006;2024-03-02T04:59:20;6.10;99.90
9466;DHT22;4771;48.726;9.006;2024-03-02T05:01:47;6.10;99.90
9466;DHT22;4771;48.726;9.006;2024-03-02T05:04:14;6.10;99.90
9466;DHT22;4771;48.726;9.006;2024-03-02T05:06:41;6.10;99.90
9466;DHT22;4771;48.726;9.006;2024-03-02T05:09:08;6.20;99.90
9466;DHT22;4771;48.726;9.006;2024-03-02T05:11:35;6.20;99.90
9466;DHT22;4771;48.726;9.006;2024-03-02T05:14:21;6.20;99.90
9466;DHT22;4771;48.726;9.006;2024-03-02T05:16:48;6.20;99.90
9466;DHT22;4771;48.726;9.006;2024-03-02T05:19:15;6.30;99.90
9466;DHT22;4771;48.726;9.006;2024-03-02T05:21:42;6.30;99.90
9466;DHT22;4771;48.726;9.006;2024-03-02T05:24:09;6.40;99.90
9466;DHT22;4771;48.726;9.006;2024-03-02T05:26:36;6.40;99.90
9466;DHT22;4771;48.726;9.006;2024-03-02T05:29:03;6.40;99.90
9466;DHT22;4771;48.726;9.006;2024-03-02T05:31:31;6.40;99.90
9466;DHT22;4771;48.726;9.006;2024-03-02T05:33:58;6.40;99.90
9466;DHT22;4771;48.726;9.006;2024-03-02T05:36:25;6.30;99.90
9466;DHT22;4771;48.726;9.006;2024-03-02T05:38:51;6.30;99.90
9466;DHT22;4771;48.726;9.006;2024-03-02T05:41:18;6.30;99.90
9466;DHT22;4771;48.726;9.006;2024-03-02T05:43:45;6.30;99.90
9466;DHT22;4771;48.726;9.006;2024-03-02T05:46:12;6.30;99.90
9466;DHT22;4771;48.726;9.006;2024-03-02T05:48:41;6.30;99.90
9466;DHT22;4771;48.726;9.006;2024-03-02T05:51:07;6.30;99.90
9466;DHT22;4771;48.726;9.006;2024-03-02T05:53:34;6.30;99.90
9466;DHT22;4771;48.726;9.006;2024-03-02T05:56:04;6.20;99.90
9466;DHT22;4771;48.726;9.006;2024-03-02T05:58:31;6.20;99.90
9466;DHT22;4771;48.726;9.006;2024-03-02T06:01:08;6.30;99.90
9466;DHT22;4771;48.726;9.006;2024-03-02T06:03:35;6.30;99.90
9466;DHT22;4771;48.726;9.006;2024-03-02T06:06:04;6.30;99.90
9466;DHT22;4771;48.726;9.006;2024-03-02T06:08:31;6.40;99.90
9466;DHT22;4771;48.726;9.006;2024-03-02T06:10:57;6.40;99.90
9466;DHT22;4771;48.726;9.006;2024-03-02T06:13:24;6.40;99.90
9466;DHT22;4771;48.726;9.006;2024-03-02T06:15:52;6.50;99.90
9466;DHT22;4771;48.726;9.006;2024-03-02T06:18:19;6.50;99.90
9466;DHT22;4771;48.726;9.006;2024-03-02T06:20:45;6.50;99.90
9466;DHT22;4771;48.726;9.006;2024-03-02T06:23:14;6.50;99.90
9466;DHT22;4771;48.726;9.006;2024-03-02T06:25:41;6.40;99.90
9466;DHT22;4771;48.726;9.006;2024-03-02T06:28:08;6.40;99.90
9466;DHT22;4771;48.726;9.006;2024-03-02T06:30:35;6.50;99.90
9466;DHT22;4771;48.726;9.006;2024-03-02T06:33:02;6.50;99.90
9466;DHT22;4771;48.726;9.006;2024-03-02T06:35:31;6.50;99.90
9466;DHT22;4771;48.726;9.006;2024-03-02T06:37:57;6.50;99.90
9466;DHT22;4771;48.726;9.006;2024-03-02T06:40:26;6.60;99.90
9466;DHT22;4771;48.726;9.006;2024-03-02T06:42:53;6.60;99.90
9466;DHT22;4771;48.726;9.006;2024-03-02T06:45:20;6.60;99.90
9466;DHT22;4771;48.726;9.006;2024-03-02T06:47:46;6.60;99.90
9466;DHT22;4771;48.726;9.006;2024-03-02T06:50:13;6.60;99.90
9466;DHT22;4771;48.726;9.006;2024-03-02T06:52:40;6.60;99.90
9466;DHT22;4771;48.726;9.006;2024-03-02T06:55:08;6.60;99.90
9466;DHT22;4771;48.726;9.006;2024-03-02T06:57:36;6.90;99.90
9466;DHT22;4771;48.726;9.006;2024-03-02T07:00:03;6.60;99.90
9466;DHT22;4771;48.726;9.006;2024-03-02T07:02:31;6.60;99.90
9466;DHT22;4771;48.726;9.006;2024-03-02T07:04:58;6.70;99.90
9466;DHT22;4771;48.726;9.006;2024-03-02T07:07:25;6.70;99.90
9466;DHT22;4771;48.726;9.006;2024-03-02T07:09:52;6.70;99.90
9466;DHT22;4771;48.726;9.006;2024-03-02T07:12:19;6.70;99.90
9466;DHT22;4771;48.726;9.006;2024-03-02T07:14:47;6.60;99.90
9466;DHT22;4771;48.726;9.006;2024-03-02T07:17:33;6.60;99.90
9466;DHT22;4771;48.726;9.006;2024-03-02T07:20:02;6.60;99.90
9466;DHT22;4771;48.726;9.006;2024-03-02T07:22:30;6.60;99.90
9466;DHT22;4771;48.726;9.006;2024-03-02T07:24:57;6.60;99.90
9466;DHT22;4771;48.726;9.006;2024-03-02T07:27:24;6.60;99.90
9466;DHT22;4771;48.726;9.006;2024-03-02T07:29:52;6.60;99.90
9466;DHT22;4771;48.726;9.006;2024-03-02T07:32:19;6.60;99.90
9466;DHT22;4771;48.726;9.006;2024-03-02T07:34:46;6.60;99.90
9466;DHT22;4771;48.726;9.006;2024-03-02T07:37:12;6.60;99.90
9466;DHT22;4771;48.726;9.006;2024-03-02T07:39:38;6.60;99.90
9466;DHT22;4771;48.726;9.006;2024-03-02T07:42:05;6.70;99.90
9466;DHT22;4771;48.726;9.006;2024-03-02T07:44:32;6.70;99.90
9466;DHT22;4771;48.726;9.006;2024-03-02T07:47:01;6.70;99.90
9466;DHT22;4771;48.726;9.006;2024-03-02T07:49:27;6.60;99.90
9466;DHT22;4771;48.726;9.006;2024-03-02T07:51:54;6.70;99.90
9466;DHT22;4771;48.726;9.006;2024-03-02T07:54:21;6.80;99.90
9466;DHT22;4771;48.726;9.006;2024-03-02T07:56:48;6.80;99.90
9466;DHT22;4771;48.726;9.006;2024-03-02T07:59:15;6.80;99.90
9466;DHT22;4771;48.726;9.006;2024-03-02T08:01:42;6.80;99.90
9466;DHT22;4771;48.726;9.006;2024-03-02T08:04:11;6.80;99.90
9466;DHT22;4771;48.726;9.006;2024-03-02T08:06:37;6.80;99.90
9466;DHT22;4771;48.726;9.006;2024-03-02T08:09:04;6.90;99.90
9466;DHT22;4771;48.726;9.006;2024-03-02T08:11:35;6.90;99.90
9466;DHT22;4771;48.726;9.006;2024-03-02T08:14:02;6.90;99.90
9466;DHT22;4771;48.726;9.006;2024-03-02T08:16:29;6.90;99.90
9466;DHT22;4771;48.726;9.006;2024-03-02T08:18:58;6.90;99.90
9466;DHT22;4771;48.726;9.006;2024-03-02T08:21:27;7.10;99.90
9466;DHT22;4771;48.726;9.006;2024-03-02T08:23:56;7.00;99.90
9466;DHT22;4771;48.726;9.006;2024-03-02T08:26:23;7.10;99.90
9466;DHT22;4771;48.726;9.006;2024-03-02T08:28:50;7.20;99.90
9466;DHT22;4771;48.726;9.006;2024-03-02T08:31:17;7.30;99.90
9466;DHT22;4771;48.726;9.006;2024-03-02T08:33:44;7.30;99.90
9466;DHT22;4771;48.726;9.006;2024-03-02T08:36:11;7.40;99.90
9466;DHT22;4771;48.726;9.006;2024-03-02T08:38:39;7.40;99.90
9466;DHT22;4771;48.726;9.006;2024-03-02T08:41:07;7.50;99.90
9466;DHT22;4771;48.726;9.006;2024-03-02T08:43:34;7.60;99.90
9466;DHT22;4771;48.726;9.006;2024-03-02T08:46:01;7.60;99.90
9466;DHT22;4771;48.726;9.006;2024-03-02T08:48:28;7.50;99.90
9466;DHT22;4771;48.726;9.006;2024-03-02T08:50:55;7.80;99.90
9466;DHT22;4771;48.726;9.006;2024-03-02T08:53:21;7.80;99.90
9466;DHT22;4771;48.726;9.006;2024-03-02T08:55:50;8.00;99.90
9466;DHT22;4771;48.726;9.006;2024-03-02T08:58:17;8.10;99.90
9466;DHT22;4771;48.726;9.006;2024-03-02T09:00:44;8.30;99.90
9466;DHT22;4771;48.726;9.006;2024-03-02T09:03:11;8.40;99.90
9466;DHT22;4771;48.726;9.006;2024-03-02T09:05:38;8.60;99.90
9466;DHT22;4771;48.726;9.006;2024-03-02T09:08:05;8.80;99.90
9466;DHT22;4771;48.726;9.006;2024-03-02T09:10:33;9.00;99.90
9466;DHT22;4771;48.726;9.006;2024-03-02T09:13:01;9.20;99.90
9466;DHT22;4771;48.726;9.006;2024-03-02T09:15:28;9.30;99.90
9466;DHT22;4771;48.726;9.006;2024-03-02T09:17:55;9.40;99.90
9466;DHT22;4771;48.726;9.006;2024-03-02T09:20:22;9.50;99.90
9466;DHT22;4771;48.726;9.006;2024-03-02T09:22:49;9.60;99.90
9466;DHT22;4771;48.726;9.006;2024-03-02T09:25:16;9.70;99.90
9466;DHT22;4771;48.726;9.006;2024-03-02T09:27:43;9.80;99.90
9466;DHT22;4771;48.726;9.006;2024-03-02T09:30:12;9.90;99.90
9466;DHT22;4771;48.726;9.006;2024-03-02T09:32:40;10.00;99.90
9466;DHT22;4771;48.726;9.006;2024-03-02T09:35:07;10.00;99.90
9466;DHT22;4771;48.726;9.006;2024-03-02T09:37:34;10.10;99.90
9466;DHT22;4771;48.726;9.006;2024-03-02T09:40:01;10.20;99.90
9466;DHT22;4771;48.726;9.006;2024-03-02T09:42:29;10.30;99.90
9466;DHT22;4771;48.726;9.006;2024-03-02T09:44:57;10.50;99.90
9466;DHT22;4771;48.726;9.006;2024-03-02T09:47:25;10.60;99.90
9466;DHT22;4771;48.726;9.006;2024-03-02T09:49:52;10.70;99.90
9466;DHT22;4771;48.726;9.006;2024-03-02T09:52:19;10.80;99.90
9466;DHT22;4771;48.726;9.006;2024-03-02T09:54:47;10.90;99.90
9466;DHT22;4771;48.726;9.006;2024-03-02T09:57:15;11.10;99.90
9466;DHT22;4771;48.726;9.006;2024-03-02T09:59:42;11.10;99.90
9466;DHT22;4771;48.726;9.006;2024-03-02T10:02:11;11.20;99.90
9466;DHT22;4771;48.726;9.006;2024-03-02T10:04:39;11.30;99.90
9466;DHT22;4771;48.726;9.006;2024-03-02T10:07:13;11.40;99.90
9466;DHT22;4771;48.726;9.006;2024-03-02T10:09:41;11.40;99.90
9466;DHT22;4771;48.726;9.006;2024-03-02T10:12:09;11.50;99.90
9466;DHT22;4771;48.726;9.006;2024-03-02T10:14:37;11.60;99.90
9466;DHT22;4771;48.726;9.006;2024-03-02T10:17:05;11.60;99.90
9466;DHT22;4771;48.726;9.006;2024-03-02T10:19:33;11.70;99.90
9466;DHT22;4771;48.726;9.006;2024-03-02T10:22:02;11.80;99.90
9466;DHT22;4771;48.726;9.006;2024-03-02T10:24:36;11.80;99.90
9466;DHT22;4771;48.726;9.006;2024-03-02T10:27:07;12.00;99.90
9466;DHT22;4771;48.726;9.006;2024-03-02T10:29:37;12.10;99.90
9466;DHT22;4771;48.726;9.006;2024-03-02T10:32:05;12.20;99.90
9466;DHT22;4771;48.726;9.006;2024-03-02T10:34:33;12.30;99.90
9466;DHT22;4771;48.726;9.006;2024-03-02T10:37:01;12.30;99.90
9466;DHT22;4771;48.726;9.006;2024-03-02T10:39:28;12.50;99.90
9466;DHT22;4771;48.726;9.006;2024-03-02T10:41:57;12.50;99.90
9466;DHT22;4771;48.726;9.006;2024-03-02T10:44:25;12.60;99.90
9466;DHT22;4771;48.726;9.006;2024-03-02T10:46:54;12.70;99.90
9466;DHT22;4771;48.726;9.006;2024-03-02T10:49:23;12.80;99.90
9466;DHT22;4771;48.726;9.006;2024-03-02T10:51:50;12.90;99.90
9466;DHT22;4771;48.726;9.006;2024-03-02T10:54:19;13.00;99.30
9466;DHT22;4771;48.726;9.006;2024-03-02T10:56:53;13.00;99.20
9466;DHT22;4771;48.726;9.006;2024-03-02T10:59:26;13.20;98.20
9466;DHT22;4771;48.726;9.006;2024-03-02T11:01:56;13.30;97.70
9466;DHT22;4771;48.726;9.006;2024-03-02T11:04:25;13.40;97.10
9466;DHT22;4771;48.726;9.006;2024-03-02T11:06:56;13.50;95.90
9466;DHT22;4771;48.726;9.006;2024-03-02T11:09:28;13.60;95.30
9466;DHT22;4771;48.726;9.006;2024-03-02T11:12:03;13.70;94.50
9466;DHT22;4771;48.726;9.006;2024-03-02T11:14:31;13.70;95.10
9466;DHT22;4771;48.726;9.006;2024-03-02T11:17:00;13.80;94.00
9466;DHT22;4771;48.726;9.006;2024-03-02T11:19:30;13.90;92.80
9466;DHT22;4771;48.726;9.006;2024-03-02T11:21:57;14.00;92.00
9466;DHT22;4771;48.726;9.006;2024-03-02T11:24:35;14.10;92.10
9466;DHT22;4771;48.726;9.006;2024-03-02T11:27:03;14.10;90.30
9466;DHT22;4771;48.726;9.006;2024-03-02T11:29:46;14.20;91.00
9466;DHT22;4771;48.726;9.006;2024-03-02T11:32:17;14.30;88.00
9466;DHT22;4771;48.726;9.006;2024-03-02T11:34:46;14.40;89.30
9466;DHT22;4771;48.726;9.006;2024-03-02T11:37:13;14.50;86.50
9466;DHT22;4771;48.726;9.006;2024-03-02T11:39:43;14.60;87.10
9466;DHT22;4771;48.726;9.006;2024-03-02T11:42:11;14.60;89.40
9466;DHT22;4771;48.726;9.006;2024-03-02T11:44:41;14.70;80.90
9466;DHT22;4771;48.726;9.006;2024-03-02T11:47:11;14.80;78.80
9466;DHT22;4771;48.726;9.006;2024-03-02T11:49:40;14.80;79.60
9466;DHT22;4771;48.726;9.006;2024-03-02T11:52:08;14.80;75.70
9466;DHT22;4771;48.726;9.006;2024-03-02T11:54:37;14.90;74.50
9466;DHT22;4771;48.726;9.006;2024-03-02T11:57:07;14.90;73.20
9466;DHT22;4771;48.726;9.006;2024-03-02T11:59:35;14.90;74.60
9466;DHT22;4771;48.726;9.006;2024-03-02T12:02:02;15.00;74.40
9466;DHT22;4771;48.726;9.006;2024-03-02T12:04:29;15.10;73.90
9466;DHT22;4771;48.726;9.006;2024-03-02T12:06:59;15.10;73.70
9466;DHT22;4771;48.726;9.006;2024-03-02T12:09:26;15.20;71.80
9466;DHT22;4771;48.726;9.006;2024-03-02T12:12:04;15.30;66.00
9466;DHT22;4771;48.726;9.006;2024-03-02T12:14:34;15.40;63.70
9466;DHT22;4771;48.726;9.006;2024-03-02T12:17:01;15.40;65.10
9466;DHT22;4771;48.726;9.006;2024-03-02T12:19:29;15.50;65.30
9466;DHT22;4771;48.726;9.006;2024-03-02T12:21:56;15.60;68.10
9466;DHT22;4771;48.726;9.006;2024-03-02T12:24:26;15.70;65.90
9466;DHT22;4771;48.726;9.006;2024-03-02T12:26:53;15.70;66.70
9466;DHT22;4771;48.726;9.006;2024-03-02T12:29:20;15.80;64.60
9466;DHT22;4771;48.726;9.006;2024-03-02T12:31:49;15.80;63.10
9466;DHT22;4771;48.726;9.006;2024-03-02T12:34:18;15.80;64.10
9466;DHT22;4771;48.726;9.006;2024-03-02T12:36:46;15.90;63.60
9466;DHT22;4771;48.726;9.006;2024-03-02T12:39:15;16.00;62.60
9466;DHT22;4771;48.726;9.006;2024-03-02T12:41:42;16.00;61.30
9466;DHT22;4771;48.726;9.006;2024-03-02T12:44:09;16.00;62.30
9466;DHT22;4771;48.726;9.006;2024-03-02T12:46:36;16.10;61.90
9466;DHT22;4771;48.726;9.006;2024-03-02T12:49:09;16.00;62.10
9466;DHT22;4771;48.726;9.006;2024-03-02T12:51:38;16.00;59.80
9466;DHT22;4771;48.726;9.006;2024-03-02T12:54:06;16.00;58.40
9466;DHT22;4771;48.726;9.006;2024-03-02T12:56:33;15.90;58.80
9466;DHT22;4771;48.726;9.006;2024-03-02T12:59:00;15.80;58.00
9466;DHT22;4771;48.726;9.006;2024-03-02T13:01:27;15.80;55.60
9466;DHT22;4771;48.726;9.006;2024-03-02T13:03:55;15.70;57.30
9466;DHT22;4771;48.726;9.006;2024-03-02T13:06:24;15.70;58.00
9466;DHT22;4771;48.726;9.006;2024-03-02T13:08:53;15.70;56.90
9466;DHT22;4771;48.726;9.006;2024-03-02T13:11:21;15.70;57.50
9466;DHT22;4771;48.726;9.006;2024-03-02T13:13:49;15.70;56.50
9466;DHT22;4771;48.726;9.006;2024-03-02T13:16:18;15.70;57.10
9466;DHT22;4771;48.726;9.006;2024-03-02T13:18:45;15.70;57.60
9466;DHT22;4771;48.726;9.006;2024-03-02T13:21:13;15.70;56.00
9466;DHT22;4771;48.726;9.006;2024-03-02T13:23:41;15.70;55.80
9466;DHT22;4771;48.726;9.006;2024-03-02T13:26:08;15.60;55.80
9466;DHT22;4771;48.726;9.006;2024-03-02T13:28:36;15.70;55.70
9466;DHT22;4771;48.726;9.006;2024-03-02T13:31:04;15.70;54.40
9466;DHT22;4771;48.726;9.006;2024-03-02T13:33:32;15.60;54.00
9466;DHT22;4771;48.726;9.006;2024-03-02T13:35:59;15.60;53.90
9466;DHT22;4771;48.726;9.006;2024-03-02T13:38:27;15.60;54.60
9466;DHT22;4771;48.726;9.006;2024-03-02T13:40:55;15.40;52.80
9466;DHT22;4771;48.726;9.006;2024-03-02T13:43:22;15.20;51.10
9466;DHT22;4771;48.726;9.006;2024-03-02T13:45:50;15.20;53.10
9466;DHT22;4771;48.726;9.006;2024-03-02T13:48:17;15.20;53.80
9466;DHT22;4771;48.726;9.006;2024-03-02T13:50:44;15.20;55.10
9466;DHT22;4771;48.726;9.006;2024-03-02T13:53:12;15.10;52.60
9466;DHT22;4771;48.726;9.006;2024-03-02T13:55:38;15.00;53.20
9466;DHT22;4771;48.726;9.006;2024-03-02T13:58:09;14.90;52.80
9466;DHT22;4771;48.726;9.006;2024-03-02T14:00:36;14.80;53.30
9466;DHT22;4771;48.726;9.006;2024-03-02T14:03:04;14.90;54.10
9466;DHT22;4771;48.726;9.006;2024-03-02T14:05:32;14.70;54.20
9466;DHT22;4771;48.726;9.006;2024-03-02T14:07:59;14.60;53.00
9466;DHT22;4771;48.726;9.006;2024-03-02T14:10:26;14.50;53.20
9466;DHT22;4771;48.726;9.006;2024-03-02T14:12:54;14.50;54.20
9466;DHT22;4771;48.726;9.006;2024-03-02T14:15:23;14.60;55.60
9466;DHT22;4771;48.726;9.006;2024-03-02T14:17:50;14.70;54.70
9466;DHT22;4771;48.726;9.006;2024-03-02T14:20:17;14.70;54.60
9466;DHT22;4771;48.726;9.006;2024-03-02T14:22:48;14.70;53.10
9466;DHT22;4771;48.726;9.006;2024-03-02T14:25:15;14.80;54.20
9466;DHT22;4771;48.726;9.006;2024-03-02T14:27:42;14.80;54.80
9466;DHT22;4771;48.726;9.006;2024-03-02T14:30:10;14.90;54.60
9466;DHT22;4771;48.726;9.006;2024-03-02T14:32:39;14.80;51.30
9466;DHT22;4771;48.726;9.006;2024-03-02T14:35:06;14.80;52.20
9466;DHT22;4771;48.726;9.006;2024-03-02T14:37:36;14.90;54.00
9466;DHT22;4771;48.726;9.006;2024-03-02T14:40:03;14.90;53.70
9466;DHT22;4771;48.726;9.006;2024-03-02T14:42:32;15.00;54.70
9466;DHT22;4771;48.726;9.006;2024-03-02T14:44:58;15.00;55.10
9466;DHT22;4771;48.726;9.006;2024-03-02T14:47:26;15.10;54.70
9466;DHT22;4771;48.726;9.006;2024-03-02T14:49:54;15.20;53.50
9466;DHT22;4771;48.726;9.006;2024-03-02T14:52:21;15.10;52.80
9466;DHT22;4771;48.726;9.006;2024-03-02T14:54:48;15.10;53.40
9466;DHT22;4771;48.726;9.006;2024-03-02T14:57:15;15.10;53.40
9466;DHT22;4771;48.726;9.006;2024-03-02T14:59:41;15.10;53.40
9466;DHT22;4771;48.726;9.006;2024-03-02T15:02:09;15.10;53.80
9466;DHT22;4771;48.726;9.006;2024-03-02T15:04:36;15.10;54.70
9466;DHT22;4771;48.726;9.006;2024-03-02T15:07:04;15.00;53.30
9466;DHT22;4771;48.726;9.006;2024-03-02T15:09:31;14.90;52.80
9466;DHT22;4771;48.726;9.006;2024-03-02T15:12:00;14.90;53.00
9466;DHT22;4771;48.726;9.006;2024-03-02T15:14:28;14.70;52.90
9466;DHT22;4771;48.726;9.006;2024-03-02T15:16:55;14.70;52.30
9466;DHT22;4771;48.726;9.006;2024-03-02T15:19:22;14.60;52.30
9466;DHT22;4771;48.726;9.006;2024-03-02T15:21:49;14.60;53.00
9466;DHT22;4771;48.726;9.006;2024-03-02T15:24:17;14.50;52.80
9466;DHT22;4771;48.726;9.006;2024-03-02T15:26:44;14.40;52.90
9466;DHT22;4771;48.726;9.006;2024-03-02T15:29:11;14.40;53.20
9466;DHT22;4771;48.726;9.006;2024-03-02T15:31:38;14.40;53.80
9466;DHT22;4771;48.726;9.006;2024-03-02T15:34:05;14.30;53.60
9466;DHT22;4771;48.726;9.006;2024-03-02T15:36:33;14.30;53.20
9466;DHT22;4771;48.726;9.006;2024-03-02T15:39:00;14.20;53.80
9466;DHT22;4771;48.726;9.006;2024-03-02T15:41:29;14.20;53.60
9466;DHT22;4771;48.726;9.006;2024-03-02T15:43:56;14.20;53.80
9466;DHT22;4771;48.726;9.006;2024-03-02T15:46:23;14.10;53.40
9466;DHT22;4771;48.726;9.006;2024-03-02T15:48:50;14.00;53.60
9466;DHT22;4771;48.726;9.006;2024-03-02T15:51:17;14.00;53.80
9466;DHT22;4771;48.726;9.006;2024-03-02T15:53:44;13.90;52.90
9466;DHT22;4771;48.726;9.006;2024-03-02T15:56:10;13.90;52.70
9466;DHT22;4771;48.726;9.006;2024-03-02T15:58:39;13.90;52.00
9466;DHT22;4771;48.726;9.006;2024-03-02T16:01:06;13.90;52.40
9466;DHT22;4771;48.726;9.006;2024-03-02T16:03:33;13.80;51.10
9466;DHT22;4771;48.726;9.006;2024-03-02T16:06:00;13.80;51.40
9466;DHT22;4771;48.726;9.006;2024-03-02T16:08:27;13.80;50.80
9466;DHT22;4771;48.726;9.006;2024-03-02T16:10:53;13.70;50.80
9466;DHT22;4771;48.726;9.006;2024-03-02T16:13:20;13.70;50.90
9466;DHT22;4771;48.726;9.006;2024-03-02T16:15:49;13.60;50.70